sensor_id;sensor_type;location;lat;lon;timestamp;temperature;humidity
55812;DHT22;41742;52.048;6.092;2022-07-10T00:01:50;15.90;99.90
55812;DHT22;41742;52.048;6.092;2022-07-10T00:04:16;15.90;99.90
55812;DHT22;41742;52.048;6.092;2022-07-10T00:06:42;15.90;99.90
55812;DHT22;41742;52.048;6.092;2022-07-10T00:09:12;15.90;99.90
55812;DHT22;41742;52.048;6.092;2022-07-10T00:11:38;15.80;99.90
55812;DHT22;41742;52.048;6.092;2022-07-10T00:14:04;15.90;99.90
55812;DHT22;41742;52.048;6.092;2022-07-10T00:16:29;15.90;99.90
55812;DHT22;41742;52.048;6.092;2022-07-10T00:18:55;15.90;99.90
55812;DHT22;41742;52.048;6.092;2022-07-10T00:21:20;15.90;99.90
55812;DHT22;41742;52.048;6.092;2022-07-10T00:23:46;15.90;99.90
55812;DHT22;41742;52.048;6.092;2022-07-10T00:26:11;15.80;99.90
55812;DHT22;41742;52.048;6.092;2022-07-10T00:28:37;15.80;99.90
55812;DHT22;41742;52.048;6.092;2022-07-10T00:31:02;15.60;99.90
55812;DHT22;41742;52.048;6.092;2022-07-10T00:33:28;15.60;99.90
55812;DHT22;41742;52.048;6.092;2022-07-10T00:35:56;15.50;99.90
55812;DHT22;41742;52.048;6.092;2022-07-10T00:38:21;15.50;99.90
55812;DHT22;41742;52.048;6.092;2022-07-10T00:40:47;15.50;99.90
55812;DHT22;41742;52.048;6.092;2022-07-10T00:43:13;15.40;99.90
55812;DHT22;41742;52.048;6.092;2022-07-10T00:45:38;15.40;99.90
55812;DHT22;41742;52.048;6.092;2022-07-10T00:48:04;15.50;99.90
55812;DHT22;41742;52.048;6.092;2022-07-10T00:50:30;15.60;99.90
55812;DHT22;41742;52.048;6.092;2022-07-10T00:52:56;15.50;99.90
55812;DHT22;41742;52.048;6.092;2022-07-10T00:55:22;15.50;99.90
55812;DHT22;41742;52.048;6.092;2022-07-10T00:57:48;15.60;99.90
55812;DHT22;41742;52.048;6.092;2022-07-10T01:00:14;15.60;99.90
55812;DHT22;41742;52.048;6.092;2022-07-10T01:02:42;15.50;99.90
55812;DHT22;41742;52.048;6.092;2022-07-10T01:05:08;15.40;99.90
55812;DHT22;41742;52.048;6.092;2022-07-10T01:07:34;15.40;99.90
55812;DHT22;41742;52.048;6.092;2022-07-10T01:10:00;15.40;99.90
55812;DHT22;41742;52.048;6.092;2022-07-10T01:12:27;15.40;99.90
55812;DHT22;41742;52.048;6.092;2022-07-10T01:14:54;15.40;99.90
55812;DHT22;41742;52.048;6.092;2022-07-10T01:17:20;15.40;99.90
55812;DHT22;41742;52.048;6.092;2022-07-10T01:19:46;15.40;99.90
55812;DHT22;41742;52.048;6.092;2022-07-10T01:22:12;15.30;99.90
55812;DHT22;41742;52.048;6.092;2022-07-10T01:24:37;15.30;99.90
55812;DHT22;41742;52.048;6.092;2022-07-10T01:27:03;15.30;99.90
55812;DHT22;41742;52.048;6.092;2022-07-10T01:29:29;15.20;99.90
55812;DHT22;41742;52.048;6.092;2022-07-10T01:31:55;15.20;99.90
55812;DHT22;41742;52.048;6.092;2022-07-10T01:34:20;15.20;99.90
55812;DHT22;41742;52.048;6.092;2022-07-10T01:36:46;15.20;99.90
55812;DHT22;41742;52.048;6.092;2022-07-10T01:39:13;15.10;99.90
55812;DHT22;41742;52.048;6.092;2022-07-10T01:41:39;15.00;99.90
55812;DHT22;41742;52.048;6.092;2022-07-10T01:44:04;15.00;99.90
55812;DHT22;41742;52.048;6.092;2022-07-10T01:46:30;14.90;99.90
55812;DHT22;41742;52.048;6.092;2022-07-10T01:48:56;14.80;99.90
55812;DHT22;41742;52.048;6.092;2022-07-10T01:51:22;14.80;99.90
55812;DHT22;41742;52.048;6.092;2022-07-10T01:53:48;14.80;99.90
55812;DHT22;41742;52.048;6.092;2022-07-10T01:56:14;14.80;99.90
55812;DHT22;41742;52.048;6.092;2022-07-10T01:58:41;14.80;99.90
55812;DHT22;41742;52.048;6.092;2022-07-10T02:01:07;14.70;99.90
55812;DHT22;41742;52.048;6.092;2022-07-10T02:03:33;14.60;99.90
55812;DHT22;41742;52.048;6.092;2022-07-10T02:06:17;14.60;99.90
55812;DHT22;41742;52.048;6.092;2022-07-10T02:08:43;14.60;99.90
55812;DHT22;41742;52.048;6.092;2022-07-10T02:11:09;14.50;99.90
55812;DHT22;41742;52.048;6.092;2022-07-10T02:13:34;14.50;99.90
55812;DHT22;41742;52.048;6.092;2022-07-10T02:16:00;14.50;99.90
55812;DHT22;41742;52.048;6.092;2022-07-10T02:18:25;14.50;99.90
55812;DHT22;41742;52.048;6.092;2022-07-10T02:20:51;14.60;99.90
55812;DHT22;41742;52.048;6.092;2022-07-10T02:23:17;14.60;99.90
55812;DHT22;41742;52.048;6.092;2022-07-10T02:25:43;14.70;99.90
55812;DHT22;41742;52.048;6.092;2022-07-10T02:28:09;14.70;99.90
55812;DHT22;41742;52.048;6.092;2022-07-10T02:30:35;14.70;99.90
55812;DHT22;41742;52.048;6.092;2022-07-10T02:33:00;14.70;99.90
55812;DHT22;41742;52.048;6.092;2022-07-10T02:35:26;14.70;99.90
55812;DHT22;41742;52.048;6.092;2022-07-10T02:37:52;14.60;99.90
55812;DHT22;41742;52.048;6.092;2022-07-10T02:40:17;14.60;99.90
55812;DHT22;41742;52.048;6.092;2022-07-10T02:42:43;14.60;99.90
55812;DHT22;41742;52.048;6.092;2022-07-10T02:45:09;14.70;99.90
55812;DHT22;41742;52.048;6.092;2022-07-10T02:47:34;14.70;99.90
55812;DHT22;41742;52.048;6.092;2022-07-10T02:50:00;14.70;99.90
55812;DHT22;41742;52.048;6.092;2022-07-10T02:52:26;14.60;99.90
55812;DHT22;41742;52.048;6.092;2022-07-10T02:54:52;14.50;99.90
55812;DHT22;41742;52.048;6.092;2022-07-10T02:57:17;14.50;99.90
55812;DHT22;41742;52.048;6.092;2022-07-10T02:59:43;14.30;99.90
55812;DHT22;41742;52.048;6.092;2022-07-10T03:02:08;14.30;99.90
55812;DHT22;41742;52.048;6.092;2022-07-10T03:04:34;14.40;99.90
55812;DHT22;41742;52.048;6.092;2022-07-10T03:07:00;14.30;99.90
55812;DHT22;41742;52.048;6.092;2022-07-10T03:09:25;14.40;99.90
55812;DHT22;41742;52.048;6.092;2022-07-10T03:11:52;14.40;99.90
55812;DHT22;41742;52.048;6.092;2022-07-10T03:14:18;14.40;99.90
55812;DHT22;41742;52.048;6.092;2022-07-10T03:16:43;14.40;99.90
55812;DHT22;41742;52.048;6.092;2022-07-10T03:19:09;14.40;99.90
55812;DHT22;41742;52.048;6.092;2022-07-10T03:21:34;14.40;99.90
55812;DHT22;41742;52.048;6.092;2022-07-10T03:24:00;14.40;99.90
55812;DHT22;41742;52.048;6.092;2022-07-10T03:26:26;14.50;99.90
55812;DHT22;41742;52.048;6.092;2022-07-10T03:28:52;14.50;99.90
55812;DHT22;41742;52.048;6.092;2022-07-10T03:31:17;14.40;99.90
55812;DHT22;41742;52.048;6.092;2022-07-10T03:33:43;14.40;99.90
55812;DHT22;41742;52.048;6.092;2022-07-10T03:36:08;14.40;99.90
55812;DHT22;41742;52.048;6.092;2022-07-10T03:38:34;14.40;99.90
55812;DHT22;41742;52.048;6.092;2022-07-10T03:40:59;14.40;99.90
55812;DHT22;41742;52.048;6.092;2022-07-10T03:43:25;14.40;99.90
55812;DHT22;41742;52.048;6.092;2022-07-10T03:45:51;14.40;99.90
55812;DHT22;41742;52.048;6.092;2022-07-10T03:48:17;14.30;99.90
55812;DHT22;41742;52.048;6.092;2022-07-10T03:50:43;14.30;99.90
55812;DHT22;41742;52.048;6.092;2022-07-10T03:53:09;14.50;99.90
55812;DHT22;41742;52.048;6.092;2022-07-10T03:55:34;14.50;99.90
55812;DHT22;41742;52.048;6.092;2022-07-10T03:58:00;14.50;99.90
55812;DHT22;41742;52.048;6.092;2022-07-10T04:00:29;14.60;99.90
55812;DHT22;41742;52.048;6.092;2022-07-10T04:03:00;14.60;99.90
55812;DHT22;41742;52.048;6.092;2022-07-10T04:05:27;14.60;99.90
55812;DHT22;41742;52.048;6.092;2022-07-10T04:07:54;14.70;99.90
55812;DHT22;41742;52.048;6.092;2022-07-10T04:10:20;14.60;99.90
55812;DHT22;41742;52.048;6.092;2022-07-10T04:12:46;14.60;99.90
55812;DHT22;41742;52.048;6.092;2022-07-10T04:15:13;14.50;99.90
55812;DHT22;41742;52.048;6.092;2022-07-10T04:17:39;14.60;99.90
55812;DHT22;41742;52.048;6.092;2022-07-10T04:20:05;14.60;99.90
55812;DHT22;41742;52.048;6.092;2022-07-10T04:22:31;14.60;99.90
55812;DHT22;41742;52.048;6.092;2022-07-10T04:24:56;14.60;99.90
55812;DHT22;41742;52.048;6.092;2022-07-10T04:27:22;14.60;99.90
55812;DHT22;41742;52.048;6.092;2022-07-10T04:29:48;14.60;99.90
55812;DHT22;41742;52.048;6.092;2022-07-10T04:32:14;14.60;99.90
55812;DHT22;41742;52.048;6.092;2022-07-10T04:34:40;14.70;99.90
55812;DHT22;41742;52.048;6.092;2022-07-10T04:37:06;14.70;99.90
55812;DHT22;41742;52.048;6.092;2022-07-10T04:39:33;14.70;99.90
55812;DHT22;41742;52.048;6.092;2022-07-10T04:42:01;14.80;99.90
55812;DHT22;41742;52.048;6.092;2022-07-10T04:44:27;14.80;99.90
55812;DHT22;41742;52.048;6.092;2022-07-10T04:46:52;14.80;99.90
55812;DHT22;41742;52.048;6.092;2022-07-10T04:49:19;14.80;99.90
55812;DHT22;41742;52.048;6.092;2022-07-10T04:51:44;14.60;99.90
55812;DHT22;41742;52.048;6.092;2022-07-10T04:54:10;14.70;99.90
55812;DHT22;41742;52.048;6.092;2022-07-10T04:56:36;14.90;99.90
55812;DHT22;41742;52.048;6.092;2022-07-10T04:59:01;14.90;99.90
55812;DHT22;41742;52.048;6.092;2022-07-10T05:01:27;14.90;99.90
55812;DHT22;41742;52.048;6.092;2022-07-10T05:03:53;15.00;99.90
55812;DHT22;41742;52.048;6.092;2022-07-10T05:06:19;15.00;99.90
55812;DHT22;41742;52.048;6.092;2022-07-10T05:08:44;15.00;99.90
55812;DHT22;41742;52.048;6.092;2022-07-10T05:11:10;15.00;99.90
55812;DHT22;41742;52.048;6.092;2022-07-10T05:13:36;15.00;99.90
55812;DHT22;41742;52.048;6.092;2022-07-10T05:16:03;15.10;99.90
55812;DHT22;41742;52.048;6.092;2022-07-10T05:18:28;15.00;99.90
55812;DHT22;41742;52.048;6.092;2022-07-10T05:20:54;15.00;99.90
55812;DHT22;41742;52.048;6.092;2022-07-10T05:23:20;15.00;99.90
55812;DHT22;41742;52.048;6.092;2022-07-10T05:25:45;15.10;99.90
55812;DHT22;41742;52.048;6.092;2022-07-10T05:28:11;15.10;99.90
55812;DHT22;41742;52.048;6.092;2022-07-10T05:30:42;15.10;99.90
55812;DHT22;41742;52.048;6.092;2022-07-10T05:33:08;15.10;99.90
55812;DHT22;41742;52.048;6.092;2022-07-10T05:35:33;15.20;99.90
55812;DHT22;41742;52.048;6.092;2022-07-10T05:37:59;15.20;99.90
55812;DHT22;41742;52.048;6.092;2022-07-10T05:40:25;15.20;99.90
55812;DHT22;41742;52.048;6.092;2022-07-10T05:42:51;15.30;99.90
55812;DHT22;41742;52.048;6.092;2022-07-10T05:45:17;15.30;99.90
55812;DHT22;41742;52.048;6.092;2022-07-10T05:47:43;15.30;99.90
55812;DHT22;41742;52.048;6.092;2022-07-10T05:50:10;15.40;99.90
55812;DHT22;41742;52.048;6.092;2022-07-10T05:52:36;15.40;99.90
55812;DHT22;41742;52.048;6.092;2022-07-10T05:55:03;15.40;99.90
55812;DHT22;41742;52.048;6.092;2022-07-10T05:57:32;15.50;99.90
55812;DHT22;41742;52.048;6.092;2022-07-10T05:59:58;15.50;99.90
55812;DHT22;41742;52.048;6.092;2022-07-10T06:02:23;15.50;99.90
55812;DHT22;41742;52.048;6.092;2022-07-10T06:04:49;15.60;99.90
55812;DHT22;41742;52.048;6.092;2022-07-10T06:07:15;15.70;99.90
55812;DHT22;41742;52.048;6.092;2022-07-10T06:09:41;15.80;99.90
55812;DHT22;41742;52.048;6.092;2022-07-10T06:12:07;15.80;99.90
55812;DHT22;41742;52.048;6.092;2022-07-10T06:14:33;15.90;99.90
55812;DHT22;41742;52.048;6.092;2022-07-10T06:16:59;15.80;99.90
55812;DHT22;41742;52.048;6.092;2022-07-10T06:19:24;15.80;99.90
55812;DHT22;41742;52.048;6.092;2022-07-10T06:21:50;15.80;99.90
55812;DHT22;41742;52.048;6.092;2022-07-10T06:24:35;15.90;99.90
55812;DHT22;41742;52.048;6.092;2022-07-10T06:27:02;15.90;99.90
55812;DHT22;41742;52.048;6.092;2022-07-10T06:29:27;16.00;99.90
55812;DHT22;41742;52.048;6.092;2022-07-10T06:31:53;16.00;99.90
55812;DHT22;41742;52.048;6.092;2022-07-10T06:34:18;16.00;99.90
55812;DHT22;41742;52.048;6.092;2022-07-10T06:36:45;15.90;99.90
55812;DHT22;41742;52.048;6.092;2022-07-10T06:39:10;15.80;99.90
55812;DHT22;41742;52.048;6.092;2022-07-10T06:41:36;15.80;99.90
55812;DHT22;41742;52.048;6.092;2022-07-10T06:44:02;15.80;99.90
55812;DHT22;41742;52.048;6.092;2022-07-10T06:46:29;15.90;99.90
55812;DHT22;41742;52.048;6.092;2022-07-10T06:48:54;15.80;99.90
55812;DHT22;41742;52.048;6.092;2022-07-10T06:51:20;15.70;99.90
55812;DHT22;41742;52.048;6.092;2022-07-10T06:53:45;15.70;99.90
55812;DHT22;41742;52.048;6.092;2022-07-10T06:56:12;15.70;99.90
55812;DHT22;41742;52.048;6.092;2022-07-10T06:58:39;15.70;99.90
55812;DHT22;41742;52.048;6.092;2022-07-10T07:01:05;15.70;99.90
55812;DHT22;41742;52.048;6.092;2022-07-10T07:03:30;15.60;99.90
55812;DHT22;41742;52.048;6.092;2022-07-10T07:05:56;15.60;99.90
55812;DHT22;41742;52.048;6.092;2022-07-10T07:08:21;15.50;99.90
55812;DHT22;41742;52.048;6.092;2022-07-10T07:10:47;15.50;99.90
55812;DHT22;41742;52.048;6.092;2022-07-10T07:13:13;15.50;99.90
55812;DHT22;41742;52.048;6.092;2022-07-10T07:15:39;15.50;99.90
55812;DHT22;41742;52.048;6.092;2022-07-10T07:18:08;15.50;99.90
55812;DHT22;41742;52.048;6.092;2022-07-10T07:20:36;15.50;99.90
55812;DHT22;41742;52.048;6.092;2022-07-10T07:23:22;15.50;99.90
55812;DHT22;41742;52.048;6.092;2022-07-10T07:25:48;15.40;99.90
55812;DHT22;41742;52.048;6.092;2022-07-10T07:28:17;15.30;99.90
55812;DHT22;41742;52.048;6.092;2022-07-10T07:30:48;15.30;99.90
55812;DHT22;41742;52.048;6.092;2022-07-10T07:33:14;15.30;99.90
55812;DHT22;41742;52.048;6.092;2022-07-10T07:35:40;15.30;99.90
55812;DHT22;41742;52.048;6.092;2022-07-10T07:38:05;15.30;99.90
55812;DHT22;41742;52.048;6.092;2022-07-10T07:40:31;15.30;99.90
55812;DHT22;41742;52.048;6.092;2022-07-10T07:42:57;15.40;99.90
55812;DHT22;41742;52.048;6.092;2022-07-10T07:45:24;15.40;99.90
55812;DHT22;41742;52.048;6.092;2022-07-10T07:47:50;15.40;99.90
55812;DHT22;41742;52.048;6.092;2022-07-10T07:50:18;15.50;99.90
55812;DHT22;41742;52.048;6.092;2022-07-10T07:52:45;15.50;99.90
55812;DHT22;41742;52.048;6.092;2022-07-10T07:55:12;15.50;99.90
55812;DHT22;41742;52.048;6.092;2022-07-10T07:57:38;15.50;99.90
55812;DHT22;41742;52.048;6.092;2022-07-10T08:00:05;15.50;99.90
55812;DHT22;41742;52.048;6.092;2022-07-10T08:02:37;15.60;99.90
55812;DHT22;41742;52.048;6.092;2022-07-10T08:05:03;15.60;99.90
55812;DHT22;41742;52.048;6.092;2022-07-10T08:07:46;15.60;99.90
55812;DHT22;41742;52.048;6.092;2022-07-10T08:10:15;15.70;99.90
55812;DHT22;41742;52.048;6.092;2022-07-10T08:12:41;15.60;99.90
55812;DHT22;41742;52.048;6.092;2022-07-10T08:15:12;15.70;99.90
55812;DHT22;41742;52.048;6.092;2022-07-10T08:17:39;15.80;99.90
55812;DHT22;41742;52.048;6.092;2022-07-10T08:20:06;15.80;99.90
55812;DHT22;41742;52.048;6.092;2022-07-10T08:22:32;15.70;99.90
55812;DHT22;41742;52.048;6.092;2022-07-10T08:24:58;15.80;99.90
55812;DHT22;41742;52.048;6.092;2022-07-10T08:27:24;15.70;99.90
55812;DHT22;41742;52.048;6.092;2022-07-10T08:29:50;15.80;99.90
55812;DHT22;41742;52.048;6.092;2022-07-10T08:32:16;15.90;99.90
55812;DHT22;41742;52.048;6.092;2022-07-10T08:34:42;16.00;99.90
55812;DHT22;41742;52.048;6.092;2022-07-10T08:37:07;16.10;99.90
55812;DHT22;41742;52.048;6.092;2022-07-10T08:39:33;16.00;99.90
55812;DHT22;41742;52.048;6.092;2022-07-10T08:41:59;16.00;99.90
55812;DHT22;41742;52.048;6.092;2022-07-10T08:44:25;16.10;99.90
55812;DHT22;41742;52.048;6.092;2022-07-10T08:46:51;16.00;99.90
55812;DHT22;41742;52.048;6.092;2022-07-10T08:49:17;16.00;99.90
55812;DHT22;41742;52.048;6.092;2022-07-10T08:51:48;16.10;99.90
55812;DHT22;41742;52.048;6.092;2022-07-10T08:54:18;16.00;99.90
55812;DHT22;41742;52.048;6.092;2022-07-10T08:56:44;16.00;99.90
55812;DHT22;41742;52.048;6.092;2022-07-10T08:59:10;15.90;99.90
55812;DHT22;41742;52.048;6.092;2022-07-10T09:01:38;16.00;99.90
55812;DHT22;41742;52.048;6.092;2022-07-10T09:04:04;16.10;99.90
55812;DHT22;41742;52.048;6.092;2022-07-10T09:06:29;16.10;99.90
55812;DHT22;41742;52.048;6.092;2022-07-10T09:09:03;16.10;99.90
55812;DHT22;41742;52.048;6.092;2022-07-10T09:11:29;16.30;99.90
55812;DHT22;41742;52.048;6.092;2022-07-10T09:14:00;16.50;99.90
55812;DHT22;41742;52.048;6.092;2022-07-10T09:16:32;16.40;99.90
55812;DHT22;41742;52.048;6.092;2022-07-10T09:21:47;16.90;99.90
55812;DHT22;41742;52.048;6.092;2022-07-10T09:24:13;17.10;99.90
55812;DHT22;41742;52.048;6.092;2022-07-10T09:26:40;17.20;99.90
55812;DHT22;41742;52.048;6.092;2022-07-10T09:29:10;17.20;99.90
55812;DHT22;41742;52.048;6.092;2022-07-10T09:31:52;17.30;99.90
55812;DHT22;41742;52.048;6.092;2022-07-10T09:34:18;17.20;99.90
55812;DHT22;41742;52.048;6.092;2022-07-10T09:36:44;17.00;99.90
55812;DHT22;41742;52.048;6.092;2022-07-10T09:39:09;16.80;99.90
55812;DHT22;41742;52.048;6.092;2022-07-10T09:41:35;16.70;99.90
55812;DHT22;41742;52.048;6.092;2022-07-10T09:44:03;16.80;99.90
55812;DHT22;41742;52.048;6.092;2022-07-10T09:46:32;16.80;99.90
55812;DHT22;41742;52.048;6.092;2022-07-10T09:49:13;16.80;99.90
55812;DHT22;41742;52.048;6.092;2022-07-10T09:51:41;16.90;99.90
55812;DHT22;41742;52.048;6.092;2022-07-10T09:54:08;17.00;99.90
55812;DHT22;41742;52.048;6.092;2022-07-10T09:59:08;17.00;99.90
55812;DHT22;41742;52.048;6.092;2022-07-10T10:01:35;17.10;99.90
55812;DHT22;41742;52.048;6.092;2022-07-10T10:04:03;17.10;99.90
55812;DHT22;41742;52.048;6.092;2022-07-10T10:06:30;17.20;99.90
55812;DHT22;41742;52.048;6.092;2022-07-10T10:09:12;17.30;99.90
55812;DHT22;41742;52.048;6.092;2022-07-10T10:11:40;17.50;99.90
55812;DHT22;41742;52.048;6.092;2022-07-10T10:14:07;17.50;99.90
55812;DHT22;41742;52.048;6.092;2022-07-10T10:16:33;17.60;99.90
55812;DHT22;41742;52.048;6.092;2022-07-10T10:18:59;17.80;99.90
55812;DHT22;41742;52.048;6.092;2022-07-10T10:21:49;17.90;99.90
55812;DHT22;41742;52.048;6.092;2022-07-10T10:24:16;18.00;99.90
55812;DHT22;41742;52.048;6.092;2022-07-10T10:26:42;18.00;99.90
55812;DHT22;41742;52.048;6.092;2022-07-10T10:29:08;18.00;99.90
55812;DHT22;41742;52.048;6.092;2022-07-10T10:31:35;18.00;99.90
55812;DHT22;41742;52.048;6.092;2022-07-10T10:34:01;18.10;99.90
55812;DHT22;41742;52.048;6.092;2022-07-10T10:39:16;17.90;99.90
55812;DHT22;41742;52.048;6.092;2022-07-10T10:41:53;17.90;99.90
55812;DHT22;41742;52.048;6.092;2022-07-10T10:44:20;17.70;99.90
55812;DHT22;41742;52.048;6.092;2022-07-10T10:47:04;17.50;99.90
55812;DHT22;41742;52.048;6.092;2022-07-10T10:49:52;17.60;99.90
55812;DHT22;41742;52.048;6.092;2022-07-10T10:52:19;17.70;99.90
55812;DHT22;41742;52.048;6.092;2022-07-10T10:59:56;17.60;99.90
55812;DHT22;41742;52.048;6.092;2022-07-10T11:02:28;17.60;99.90
55812;DHT22;41742;52.048;6.092;2022-07-10T11:08:01;18.00;99.90
55812;DHT22;41742;52.048;6.092;2022-07-10T11:10:36;18.40;99.90
55812;DHT22;41742;52.048;6.092;2022-07-10T11:13:13;18.90;99.90
55812;DHT22;41742;52.048;6.092;2022-07-10T11:15:42;19.10;99.90
55812;DHT22;41742;52.048;6.092;2022-07-10T11:18:13;19.20;99.90
55812;DHT22;41742;52.048;6.092;2022-07-10T11:20:41;19.60;99.90
55812;DHT22;41742;52.048;6.092;2022-07-10T11:26:02;20.10;99.90
55812;DHT22;41742;52.048;6.092;2022-07-10T11:31:08;20.50;99.90
55812;DHT22;41742;52.048;6.092;2022-07-10T11:33:41;20.20;99.90
55812;DHT22;41742;52.048;6.092;2022-07-10T11:36:16;20.40;99.90
55812;DHT22;41742;52.048;6.092;2022-07-10T11:38:43;20.40;99.90
55812;DHT22;41742;52.048;6.092;2022-07-10T11:41:27;20.40;99.90
55812;DHT22;41742;52.048;6.092;2022-07-10T11:43:54;20.10;99.90
55812;DHT22;41742;52.048;6.092;2022-07-10T11:46:21;19.90;99.90
55812;DHT22;41742;52.048;6.092;2022-07-10T11:48:49;19.90;99.90
55812;DHT22;41742;52.048;6.092;2022-07-10T11:51:39;20.00;99.90
55812;DHT22;41742;52.048;6.092;2022-07-10T11:54:07;20.10;99.90
55812;DHT22;41742;52.048;6.092;2022-07-10T11:56:36;19.90;99.90
55812;DHT22;41742;52.048;6.092;2022-07-10T11:59:10;19.70;99.90
55812;DHT22;41742;52.048;6.092;2022-07-10T12:01:43;19.40;99.90
55812;DHT22;41742;52.048;6.092;2022-07-10T12:04:10;19.30;99.90
55812;DHT22;41742;52.048;6.092;2022-07-10T12:06:39;19.20;99.90
55812;DHT22;41742;52.048;6.092;2022-07-10T12:09:06;19.00;99.90
55812;DHT22;41742;52.048;6.092;2022-07-10T12:11:34;18.90;99.90
55812;DHT22;41742;52.048;6.092;2022-07-10T12:14:19;19.00;99.90
55812;DHT22;41742;52.048;6.092;2022-07-10T12:16:50;19.30;99.90
55812;DHT22;41742;52.048;6.092;2022-07-10T12:19:22;19.60;99.90
55812;DHT22;41742;52.048;6.092;2022-07-10T12:21:48;19.80;99.90
55812;DHT22;41742;52.048;6.092;2022-07-10T12:24:16;19.90;99.90
55812;DHT22;41742;52.048;6.092;2022-07-10T12:26:43;19.90;99.90
55812;DHT22;41742;52.048;6.092;2022-07-10T12:29:26;19.60;99.90
55812;DHT22;41742;52.048;6.092;2022-07-10T12:31:53;19.50;99.90
55812;DHT22;41742;52.048;6.092;2022-07-10T12:34:31;19.20;99.90
55812;DHT22;41742;52.048;6.092;2022-07-10T12:36:57;19.10;99.90
55812;DHT22;41742;52.048;6.092;2022-07-10T12:39:24;19.10;99.90
55812;DHT22;41742;52.048;6.092;2022-07-10T12:44:44;19.30;99.90
55812;DHT22;41742;52.048;6.092;2022-07-10T12:47:17;19.40;99.90
55812;DHT22;41742;52.048;6.092;2022-07-10T12:50:03;19.30;99.90
55812;DHT22;41742;52.048;6.092;2022-07-10T12:52:34;19.20;99.90
55812;DHT22;41742;52.048;6.092;2022-07-10T12:55:17;19.30;99.90
55812;DHT22;41742;52.048;6.092;2022-07-10T12:57:58;19.30;99.90
55812;DHT22;41742;52.048;6.092;2022-07-10T13:00:44;19.30;99.90
55812;DHT22;41742;52.048;6.092;2022-07-10T13:03:16;19.30;99.90
55812;DHT22;41742;52.048;6.092;2022-07-10T13:05:43;19.40;99.90
55812;DHT22;41742;52.048;6.092;2022-07-10T13:08:13;19.60;99.90
55812;DHT22;41742;52.048;6.092;2022-07-10T13:10:42;19.60;99.90
55812;DHT22;41742;52.048;6.092;2022-07-10T13:13:08;19.60;99.90
55812;DHT22;41742;52.048;6.092;2022-07-10T13:15:35;19.80;99.90
55812;DHT22;41742;52.048;6.092;2022-07-10T13:20:43;20.20;99.90
55812;DHT22;41742;52.048;6.092;2022-07-10T13:23:09;20.20;99.90
55812;DHT22;41742;52.048;6.092;2022-07-10T13:25:36;20.40;99.90
55812;DHT22;41742;52.048;6.092;2022-07-10T13:28:01;20.40;99.90
55812;DHT22;41742;52.048;6.092;2022-07-10T13:30:28;20.50;99.90
55812;DHT22;41742;52.048;6.092;2022-07-10T13:32:53;20.50;99.90
55812;DHT22;41742;52.048;6.092;2022-07-10T13:35:19;20.60;99.90
55812;DHT22;41742;52.048;6.092;2022-07-10T13:37:45;20.70;99.90
55812;DHT22;41742;52.048;6.092;2022-07-10T13:40:12;20.70;99.90
55812;DHT22;41742;52.048;6.092;2022-07-10T13:42:37;20.70;99.90
55812;DHT22;41742;52.048;6.092;2022-07-10T13:45:03;20.80;99.90
55812;DHT22;41742;52.048;6.092;2022-07-10T13:47:29;20.80;99.90
55812;DHT22;41742;52.048;6.092;2022-07-10T13:49:55;21.00;99.90
55812;DHT22;41742;52.048;6.092;2022-07-10T13:52:20;21.10;99.90
55812;DHT22;41742;52.048;6.092;2022-07-10T13:54:46;20.90;99.90
55812;DHT22;41742;52.048;6.092;2022-07-10T13:57:11;20.80;99.90
55812;DHT22;41742;52.048;6.092;2022-07-10T13:59:37;21.00;99.90
55812;DHT22;41742;52.048;6.092;2022-07-10T14:02:03;21.20;99.90
55812;DHT22;41742;52.048;6.092;2022-07-10T14:04:29;21.10;99.90
55812;DHT22;41742;52.048;6.092;2022-07-10T14:06:54;21.30;99.90
55812;DHT22;41742;52.048;6.092;2022-07-10T14:09:20;21.30;99.90
55812;DHT22;41742;52.048;6.092;2022-07-10T14:11:49;21.10;99.90
55812;DHT22;41742;52.048;6.092;2022-07-10T14:14:15;21.00;99.90
55812;DHT22;41742;52.048;6.092;2022-07-10T14:16:41;21.10;99.90
55812;DHT22;41742;52.048;6.092;2022-07-10T14:19:09;21.00;99.90
55812;DHT22;41742;52.048;6.092;2022-07-10T14:21:35;21.30;99.90
55812;DHT22;41742;52.048;6.092;2022-07-10T14:24:02;21.50;99.90
55812;DHT22;41742;52.048;6.092;2022-07-10T14:26:28;21.40;99.90
55812;DHT22;41742;52.048;6.092;2022-07-10T14:28:54;21.10;99.90
55812;DHT22;41742;52.048;6.092;2022-07-10T14:31:20;21.10;99.90
55812;DHT22;41742;52.048;6.092;2022-07-10T14:33:46;21.20;99.90
55812;DHT22;41742;52.048;6.092;2022-07-10T14:36:12;21.20;99.90
55812;DHT22;41742;52.048;6.092;2022-07-10T14:38:37;21.30;99.90
55812;DHT22;41742;52.048;6.092;2022-07-10T14:41:04;21.50;99.90
55812;DHT22;41742;52.048;6.092;2022-07-10T14:43:31;21.60;99.90
55812;DHT22;41742;52.048;6.092;2022-07-10T14:45:59;21.60;99.90
55812;DHT22;41742;52.048;6.092;2022-07-10T14:48:32;21.60;99.90
55812;DHT22;41742;52.048;6.092;2022-07-10T14:50:58;21.50;99.90
55812;DHT22;41742;52.048;6.092;2022-07-10T14:53:24;21.50;99.90
55812;DHT22;41742;52.048;6.092;2022-07-10T14:55:50;21.40;99.90
55812;DHT22;41742;52.048;6.092;2022-07-10T14:58:15;21.20;99.90
55812;DHT22;41742;52.048;6.092;2022-07-10T15:00:42;21.30;99.90
55812;DHT22;41742;52.048;6.092;2022-07-10T15:03:08;21.30;99.90
55812;DHT22;41742;52.048;6.092;2022-07-10T15:05:33;21.30;99.90
55812;DHT22;41742;52.048;6.092;2022-07-10T15:08:00;21.20;99.90
55812;DHT22;41742;52.048;6.092;2022-07-10T15:10:26;21.10;99.90
55812;DHT22;41742;52.048;6.092;2022-07-10T15:12:52;21.30;99.90
55812;DHT22;41742;52.048;6.092;2022-07-10T15:15:18;21.70;99.90
55812;DHT22;41742;52.048;6.092;2022-07-10T15:17:44;22.00;99.90
55812;DHT22;41742;52.048;6.092;2022-07-10T15:20:11;22.10;99.90
55812;DHT22;41742;52.048;6.092;2022-07-10T15:22:36;22.00;99.90
55812;DHT22;41742;52.048;6.092;2022-07-10T15:25:02;22.00;99.90
55812;DHT22;41742;52.048;6.092;2022-07-10T15:27:28;21.80;99.90
55812;DHT22;41742;52.048;6.092;2022-07-10T15:29:54;21.70;99.90
55812;DHT22;41742;52.048;6.092;2022-07-10T15:32:20;21.60;99.90
55812;DHT22;41742;52.048;6.092;2022-07-10T15:34:46;21.60;99.90
55812;DHT22;41742;52.048;6.092;2022-07-10T15:37:15;21.70;99.90
55812;DHT22;41742;52.048;6.092;2022-07-10T15:39:40;21.80;99.90
55812;DHT22;41742;52.048;6.092;2022-07-10T15:42:10;21.80;99.90
55812;DHT22;41742;52.048;6.092;2022-07-10T15:44:36;21.80;99.90
55812;DHT22;41742;52.048;6.092;2022-07-10T15:47:02;21.90;99.90
55812;DHT22;41742;52.048;6.092;2022-07-10T15:49:28;21.90;99.90
55812;DHT22;41742;52.048;6.092;2022-07-10T15:51:54;21.70;99.90
55812;DHT22;41742;52.048;6.092;2022-07-10T15:54:20;21.60;99.90
55812;DHT22;41742;52.048;6.092;2022-07-10T15:56:46;21.50;99.90
55812;DHT22;41742;52.048;6.092;2022-07-10T15:59:12;21.30;99.90